• Join FlightAware (Why Join?)
  • Login
  • US Flag 
09:03PM EDT


 

Airport Tracker/Info


-or-


 

Live Flight TrackerFlight Track Log ✈ DAL5173 ✈ 28-Aug-2013 ✈ KRDU - KDTW

Flight Track Log - Related Links

Times and Time Zones

All times are in EDT time to prevent confusion due to time zone crossing. See the DAL5173 flight status page for this flight to view local times or setup timezone preferences in your user account.

Time Position Orientation Groundspeed Altitude Reporting Facility
EDT Latitude Longitude Course Direction KTS MPH feet Rate Location/Type
07:13PM 35.8686 -78.8089 235° Southwest 187 215 1,400  Level Washington Center
07:15PM 35.8336 -78.8714 235° Southwest 223 257 4,400 2,280 Climbing Washington Center
07:16PM 35.8653 -78.9317 303° West 256 295 6,500 2,580 Climbing Washington Center
07:16PM 35.9028 -79.0078 301° West 262 302 9,500 2,160 Climbing Washington Center
07:18PM 35.9483 -79.0942 303° West 280 322 10,800 1,680 Climbing Washington Center
07:19PM 36.0078 -79.2047 304° West 342 394 12,900 1,980 Climbing Washington Center
07:20PM 36.0525 -79.3069 298° West 374 430 14,800 2,040 Climbing Washington Center
07:20PM 36.1464 -79.3731 330° Northwest 363 418 17,000 1,860 Climbing Washington Center
07:22PM 36.2303 -79.4286 332° Northwest 363 418 18,600 1,800 Climbing Washington Center
07:23PM 36.3278 -79.5108 326° Northwest 376 433 20,700 1,740 Climbing Washington Center
07:24PM 36.4147 -79.5900 324° Northwest 388 447 22,100 1,320 Climbing Washington Center
07:25PM 36.5058 -79.6722 324° Northwest 400 460 23,400 1,260 Climbing Washington Center
07:25PM 36.5867 -79.7542 321° Northwest 405 466 24,600 1,080 Climbing Washington Center
07:27PM 36.6531 -79.8767 304° West 414 476 25,600 780 Climbing Washington Center
07:28PM 36.7194 -80.0047 303° West 428 493 26,300 840 Climbing Washington Center
07:29PM 36.7875 -80.1358 303° West 446 513 27,300 1,020 Climbing Washington Center
07:30PM 36.8797 -80.3150 303° West 464 534 28,700 1,140 Climbing Atlanta Center
07:31PM 36.9550 -80.4622 303° West 464 534 30,000 1,080 Climbing Atlanta Center
07:32PM 37.0256 -80.5942 304° West 464 534 30,900 900 Climbing Atlanta Center
07:33PM 37.1000 -80.7236 306° West 464 534 31,800 540 Climbing Atlanta Center
07:34PM 37.2103 -80.7969 332° Northwest 448 516 32,000 60 Climbing Atlanta Center
07:35PM 37.3703 -80.8797 338° Northwest 458 527 32,000  Level Indianapolis Center
07:36PM 37.4675 -80.9708 323° Northwest 453 521 32,000  Level Indianapolis Center
07:37PM 37.5564 -81.0853 314° West 466 536 32,000  Level Indianapolis Center
07:38PM 37.6617 -81.2208 314° West 464 534 32,000  Level Indianapolis Center
07:39PM 37.7589 -81.3239 320° Northwest 467 537 32,000  Level Indianapolis Center
07:40PM 37.8497 -81.4389 315° West 465 535 32,000 240 Level Indianapolis Center
07:41PM 37.9628 -81.5175 331° Northwest 467 537 32,600 960 Climbing Indianapolis Center
07:42PM 38.0814 -81.5631 343° North 446 513 34,000 660 Climbing Indianapolis Center
07:43PM 38.1997 -81.6083 343° North 442 509 34,000  Level Indianapolis Center
07:44PM 38.3214 -81.6561 343° North 452 520 34,000 480 Level Indianapolis Center
07:45PM 38.4669 -81.7181 342° North 456 525 35,000 480 Climbing Indianapolis Center
07:47PM 38.5919 -81.7411 352° North 448 516 35,000  Level Indianapolis Center
07:48PM 38.7208 -81.7528 356° North 453 521 35,000  Level Indianapolis Center
07:49PM 38.8475 -81.7664 355° North 448 516 35,000  Level Indianapolis Center
07:50PM 38.9725 -81.7803 355° North 449 517 35,000  Level Indianapolis Center
07:51PM 39.0972 -81.7947 355° North 450 518 35,000  Level Indianapolis Center
07:52PM 39.2197 -81.8089 355° North 442 509 35,000  Level Indianapolis Center
07:53PM 39.3436 -81.8217 355° North 446 513 35,000  Level Indianapolis Center
07:54PM 39.4658 -81.8356 355° North 442 509 35,000  Level Indianapolis Center
07:55PM 39.5883 -81.8500 355° North 440 506 35,000  Level Indianapolis Center
07:56PM 39.7361 -81.8675 355° North 441 507 35,000 -360 Level Indianapolis Center
07:57PM 39.8564 -81.8881 353° North 438 504 34,300 -540 Descending Indianapolis Center
07:58PM 39.9736 -81.9092 352° North 438 504 34,000 -180 Descending Indianapolis Center
07:59PM 40.0967 -81.9317 352° North 442 509 34,000  Level Indianapolis Center
08:00PM 40.2236 -81.9553 352° North 451 519 34,000 -780 Level Indianapolis Center
08:01PM 40.3494 -81.9764 353° North 453 521 32,500 -1,620 Descending Indianapolis Center
08:02PM 40.4725 -82.0022 351° North 446 513 30,700 -1,260 Descending Indianapolis Center
08:03PM 40.5850 -82.0722 335° Northwest 442 509 30,000 -1,080 Descending Indianapolis Center
08:04PM 40.7167 -82.1511 336° Northwest 442 509 28,500 -1,620 Descending Indianapolis Center
08:05PM 40.8292 -82.2192 335° Northwest 440 506 26,700 -1,860 Descending Indianapolis Center
08:06PM 40.9411 -82.2881 335° Northwest 438 504 24,800 -1,320 Descending Indianapolis Center
08:07PM 41.0522 -82.3575 335° Northwest 437 503 24,000 -1,260 Descending Indianapolis Center
08:08PM 41.1611 -82.4242 335° Northwest 427 491 22,200 -1,980 Descending Indianapolis Center
08:09PM 41.2658 -82.4881 335° Northwest 414 476 20,000 -2,220 Descending Indianapolis Center
08:10PM 41.3714 -82.5547 335° Northwest 413 475 17,700 -2,280 Descending Indianapolis Center
08:11PM 41.4294 -82.5939 333° Northwest 408 470 16,500 -2,280 Descending Cleveland Center
08:11PM 41.4997 -82.6375 335° Northwest 402 463 14,900 -2,100 Descending Cleveland Center
08:12PM 41.5883 -82.6931 335° Northwest 392 451 12,900 -1,500 Descending Cleveland Center
08:13PM 41.6789 -82.7489 335° Northwest 312 359 12,000 -660 Descending Cleveland Center
08:14PM 41.7444 -82.8039 328° Northwest 264 304 11,700 -840 Descending Cleveland Center
08:15PM 41.7972 -82.8839 312° West 295 339 10,400 -1,260 Descending Cleveland Center
08:16PM 41.8350 -82.9661 302° West 281 323 9,300 -1,380 Descending Cleveland Center
08:17PM 41.8728 -83.0539 300° West 223 257 7,700 -1,620 Descending Cleveland Center
08:18PM 41.9006 -83.1219 299° West 246 283 6,000 -900 Descending Cleveland Center
08:19PM 41.9181 -83.1839 291° West 233 268 6,000 -240 Level Cleveland Center
08:20PM 41.9031 -83.2867 259° West 222 255 5,600 -480 Descending Cleveland Center
08:22PM 41.8800 -83.3833 252° West 214 246 5,000 -300 Descending Cleveland Center
08:23PM 41.8547 -83.4686 248° West 215 247 5,000 -480 Level Cleveland Center
08:24PM 41.8697 -83.5389 286° West 201 231 4,000 -540 Descending Cleveland Center
08:25PM 41.9172 -83.5550 346° North 186 214 4,000  Level Cleveland Center
08:26PM 41.9683 -83.5183 28° Northeast 185 213 4,000  Level Cleveland Center
08:27PM 42.0128 -83.4897 26° Northeast 181 208 4,000 -120 Level Cleveland Center
08:28PM 42.0575 -83.4553 30° Northeast 184 212 3,800 -720 Descending Cleveland Center
08:29PM 42.1042 -83.4211 29° Northeast 177 204 2,600 -1,020 Descending Cleveland Center
08:30PM 42.1381 -83.3975 27° Northeast 139 160 1,900 -720 Descending Cleveland Center
08:31PM 42.1719 -83.3708 30° Northeast 138 159 1,200 -720 Descending Cleveland Center